createdAt,value
2019-02-26T00:00:32.683Z,1019.2
2019-02-26T00:01:33.448Z,1019.2
2019-02-26T00:02:34.165Z,1019.3
2019-02-26T00:03:35.436Z,1019.3
2019-02-26T00:04:36.918Z,1019.3
2019-02-26T00:05:36.314Z,1019.2
2019-02-26T00:06:37.019Z,1019.2
2019-02-26T00:07:37.726Z,1019.2
2019-02-26T00:08:38.452Z,1019.2
2019-02-26T00:09:39.429Z,1019.2
2019-02-26T00:10:40.122Z,1019.2
2019-02-26T00:11:40.839Z,1019.2
2019-02-26T00:12:41.547Z,1019.2
2019-02-26T00:13:42.588Z,1019.2
2019-02-26T00:14:45.310Z,1019.2
2019-02-26T00:15:45.926Z,1019.2
2019-02-26T00:16:46.653Z,1019.2
2019-02-26T00:17:46.421Z,1019.2
2019-02-26T00:18:46.144Z,1019.3
2019-02-26T00:19:46.860Z,1019.3
2019-02-26T00:20:47.815Z,1019.3
2019-02-26T00:21:50.092Z,1019.3
2019-02-26T00:22:49.792Z,1019.3
2019-02-26T00:23:51.481Z,1019.3
2019-02-26T00:24:51.659Z,1019.4
2019-02-26T00:25:52.631Z,1019.3
2019-02-26T00:26:53.333Z,1019.4
2019-02-26T00:27:55.876Z,1019.5
2019-02-26T00:28:54.785Z,1019.5
2019-02-26T00:29:55.767Z,1019.5
2019-02-26T00:30:57.207Z,1019.5
2019-02-26T00:31:57.789Z,1019.5
2019-02-26T00:33:00.115Z,1019.5
2019-02-26T00:33:58.765Z,1019.5
2019-02-26T00:35:00.038Z,1019.4
2019-02-26T00:36:00.206Z,1019.4
2019-02-26T00:37:01.804Z,1019.5
2019-02-26T00:38:01.737Z,1019.4
2019-02-26T00:39:03.449Z,1019.5
2019-02-26T00:40:03.157Z,1019.4
2019-02-26T00:41:05.604Z,1019.4
2019-02-26T00:42:05.159Z,1019.4
2019-02-26T00:43:06.577Z,1019.4
2019-02-26T00:44:06.522Z,1019.3
2019-02-26T00:45:07.889Z,1019.4
2019-02-26T00:46:08.566Z,1019.4
2019-02-26T00:47:08.960Z,1019.4
2019-02-26T00:48:08.911Z,1019.4
2019-02-26T00:49:09.621Z,1019.4
2019-02-26T00:50:12.021Z,1019.5
2019-02-26T00:51:11.327Z,1019.5
2019-02-26T00:52:13.301Z,1019.4
2019-02-26T00:53:12.749Z,1019.4
2019-02-26T00:54:13.458Z,1019.4
2019-02-26T00:55:14.181Z,1019.4
2019-02-26T00:56:14.882Z,1019.4
2019-02-26T00:57:15.593Z,1019.3
2019-02-26T00:58:16.346Z,1019.4
2019-02-26T00:59:17.051Z,1019.3
2019-02-26T01:00:18.030Z,1019.4
2019-02-26T01:01:19.924Z,1019.4
2019-02-26T01:02:19.457Z,1019.4
2019-02-26T01:03:20.163Z,1019.4
2019-02-26T01:04:20.886Z,1019.4
2019-02-26T01:05:21.611Z,1019.3
2019-02-26T01:06:23.049Z,1019.4
2019-02-26T01:07:23.843Z,1019.3
2019-02-26T01:08:23.737Z,1019.3
2019-02-26T01:09:25.182Z,1019.3
2019-02-26T01:10:25.167Z,1019.3
2019-02-26T01:11:27.588Z,1019.3
2019-02-26T01:12:26.605Z,1019.2
2019-02-26T01:13:28.448Z,1019.2
2019-02-26T01:14:28.076Z,1019.3
2019-02-26T01:15:28.776Z,1019.2
2019-02-26T01:16:29.491Z,1019.3
2019-02-26T01:17:31.171Z,1019.3
2019-02-26T01:18:31.278Z,1019.3
2019-02-26T01:19:32.520Z,1019.3
2019-02-26T01:20:32.695Z,1019.3
2019-02-26T01:21:35.402Z,1019.3
2019-02-26T01:22:35.427Z,1019.2
2019-02-26T01:23:35.085Z,1019.3
2019-02-26T01:24:35.794Z,1019.2
2019-02-26T01:25:38.742Z,1019.2
2019-02-26T01:26:37.214Z,1019.2
2019-02-26T01:27:37.927Z,1019.2
2019-02-26T01:28:39.632Z,1019.2
2019-02-26T01:29:39.350Z,1019.2
2019-02-26T01:30:40.060Z,1019.2
2019-02-26T01:31:40.772Z,1019.1
2019-02-26T01:32:41.485Z,1019.2
2019-02-26T01:33:42.199Z,1019.1
2019-02-26T01:34:44.899Z,1019.1
2019-02-26T01:35:44.030Z,1019.0
2019-02-26T01:36:45.612Z,1019.0
2019-02-26T01:37:45.458Z,1019.0
2019-02-26T01:38:48.238Z,1018.9
2019-02-26T01:39:47.291Z,1018.9
2019-02-26T01:40:50.734Z,1018.9
2019-02-26T01:41:50.388Z,1019.0
2019-02-26T01:42:52.217Z,1019.0
2019-02-26T01:43:49.745Z,1019.0
2019-02-26T01:44:50.448Z,1019.0
2019-02-26T01:45:53.117Z,1019.0
2019-02-26T01:46:53.420Z,1019.0
2019-02-26T01:47:52.782Z,1018.9
2019-02-26T01:48:55.060Z,1018.9
2019-02-26T01:49:54.038Z,1018.9
2019-02-26T01:50:56.812Z,1018.9
2019-02-26T01:51:55.515Z,1018.9
2019-02-26T01:52:56.817Z,1018.8
2019-02-26T01:53:56.943Z,1018.8
2019-02-26T01:54:59.736Z,1018.9
2019-02-26T01:55:58.373Z,1018.9
2019-02-26T01:56:59.076Z,1018.8
2019-02-26T01:57:59.794Z,1018.8
2019-02-26T01:59:02.353Z,1018.8
2019-02-26T02:00:01.231Z,1018.7
2019-02-26T02:01:01.950Z,1018.6
2019-02-26T02:02:02.663Z,1018.7
2019-02-26T02:03:03.391Z,1018.7
2019-02-26T02:04:04.095Z,1018.7
2019-02-26T02:05:06.706Z,1018.7
2019-02-26T02:06:06.240Z,1018.7
2019-02-26T02:07:06.278Z,1018.7
2019-02-26T02:08:09.057Z,1018.7
2019-02-26T02:09:11.276Z,1018.7
2019-02-26T02:10:08.416Z,1018.7
2019-02-26T02:11:09.371Z,1018.7
2019-02-26T02:12:11.021Z,1018.7
2019-02-26T02:13:11.431Z,1018.8
2019-02-26T02:14:12.729Z,1018.8
2019-02-26T02:15:12.363Z,1018.8
2019-02-26T02:16:12.713Z,1018.8
2019-02-26T02:17:13.599Z,1018.8
2019-02-26T02:18:14.141Z,1018.8
2019-02-26T02:19:18.035Z,1018.8
2019-02-26T02:20:18.089Z,1018.8
2019-02-26T02:21:16.296Z,1018.8
2019-02-26T02:22:18.974Z,1018.9
2019-02-26T02:23:19.383Z,1018.9
2019-02-26T02:24:20.570Z,1018.8
2019-02-26T02:25:19.148Z,1018.8
2019-02-26T02:26:19.865Z,1018.9
2019-02-26T02:27:22.585Z,1018.8
2019-02-26T02:28:22.174Z,1018.8
2019-02-26T02:29:23.653Z,1018.8
2019-02-26T02:30:27.316Z,1018.7
2019-02-26T02:31:24.437Z,1018.7
2019-02-26T02:32:26.096Z,1018.6
2019-02-26T02:33:26.754Z,1018.6
2019-02-26T02:34:27.025Z,1018.5
2019-02-26T02:35:26.315Z,1018.5
2019-02-26T02:36:27.050Z,1018.5
2019-02-26T02:37:29.919Z,1018.5
2019-02-26T02:38:28.462Z,1018.5
2019-02-26T02:39:29.325Z,1018.5
2019-02-26T02:40:29.899Z,1018.5
2019-02-26T02:41:30.654Z,1018.6
2019-02-26T02:42:31.379Z,1018.6
2019-02-26T02:43:32.080Z,1018.5
2019-02-26T02:44:33.042Z,1018.6
2019-02-26T02:45:33.744Z,1018.6
2019-02-26T02:46:36.545Z,1018.6
2019-02-26T02:47:36.992Z,1018.6
2019-02-26T02:48:36.005Z,1018.5
2019-02-26T02:49:39.379Z,1018.5
2019-02-26T02:50:37.435Z,1018.5
2019-02-26T02:51:39.528Z,1018.5
2019-02-26T02:52:38.880Z,1018.5
2019-02-26T02:53:39.589Z,1018.5
2019-02-26T02:54:41.218Z,1018.5
2019-02-26T02:55:43.285Z,1018.4
2019-02-26T02:56:42.422Z,1018.4
2019-02-26T02:57:42.439Z,1018.4
2019-02-26T02:58:44.234Z,1018.3
2019-02-26T02:59:43.855Z,1018.4
2019-02-26T03:00:46.182Z,1018.3
2019-02-26T03:01:48.359Z,1018.3
2019-02-26T03:02:49.415Z,1018.4
2019-02-26T03:03:47.736Z,1018.4
2019-02-26T03:04:47.472Z,1018.4
2019-02-26T03:05:48.176Z,1018.4
2019-02-26T03:06:50.159Z,1018.4
2019-02-26T03:07:51.525Z,1018.5
2019-02-26T03:08:51.094Z,1018.4
2019-02-26T03:09:51.077Z,1018.4
2019-02-26T03:10:51.784Z,1018.5
2019-02-26T03:11:53.066Z,1018.5
2019-02-26T03:12:55.278Z,1018.5
2019-02-26T03:13:54.173Z,1018.5
2019-02-26T03:14:56.356Z,1018.5
2019-02-26T03:15:56.628Z,1018.5
2019-02-26T03:16:56.312Z,1018.5
2019-02-26T03:17:57.038Z,1018.5
2019-02-26T03:18:57.731Z,1018.5
2019-02-26T03:20:00.753Z,1018.5
2019-02-26T03:21:01.446Z,1018.5
2019-02-26T03:21:59.888Z,1018.5
2019-02-26T03:23:00.596Z,1018.5
2019-02-26T03:24:03.511Z,1018.5
2019-02-26T03:25:02.485Z,1018.5
2019-02-26T03:26:02.834Z,1018.5
2019-02-26T03:27:03.538Z,1018.5
2019-02-26T03:28:04.248Z,1018.5
2019-02-26T03:29:04.957Z,1018.6
2019-02-26T03:30:05.664Z,1018.6
2019-02-26T03:31:06.385Z,1018.6
2019-02-26T03:32:07.123Z,1018.6
2019-02-26T03:33:07.839Z,1018.6
2019-02-26T03:34:13.979Z,1018.5
2019-02-26T03:35:10.172Z,1018.5
2019-02-26T03:36:11.202Z,1018.6
2019-02-26T03:37:11.130Z,1018.5
2019-02-26T03:38:11.394Z,1018.5
2019-02-26T03:39:12.097Z,1018.5
2019-02-26T03:40:12.807Z,1018.5
2019-02-26T03:41:13.534Z,1018.5
2019-02-26T03:42:16.292Z,1018.5
2019-02-26T03:43:16.206Z,1018.5
2019-02-26T03:44:15.687Z,1018.5
2019-02-26T03:45:16.403Z,1018.5
2019-02-26T03:46:17.105Z,1018.5
2019-02-26T03:47:18.790Z,1018.5
2019-02-26T03:48:20.042Z,1018.6
2019-02-26T03:49:19.259Z,1018.6
2019-02-26T03:50:19.976Z,1018.6
2019-02-26T03:51:20.691Z,1018.6
2019-02-26T03:52:21.451Z,1018.6
2019-02-26T03:53:25.522Z,1018.5
2019-02-26T03:54:22.894Z,1018.6
2019-02-26T03:55:23.626Z,1018.6
2019-02-26T03:56:24.333Z,1018.6
2019-02-26T03:57:25.058Z,1018.6
2019-02-26T03:58:25.770Z,1018.6
2019-02-26T03:59:26.471Z,1018.6
2019-02-26T04:00:27.188Z,1018.6
2019-02-26T04:01:27.894Z,1018.7
2019-02-26T04:02:28.598Z,1018.6
2019-02-26T04:03:31.514Z,1018.6
2019-02-26T04:04:31.187Z,1018.7
2019-02-26T04:05:30.993Z,1018.7
2019-02-26T04:06:33.405Z,1018.7
2019-02-26T04:07:33.535Z,1018.7
2019-02-26T04:08:33.091Z,1018.7
2019-02-26T04:09:33.816Z,1018.7
2019-02-26T04:10:34.553Z,1018.8
2019-02-26T04:11:35.257Z,1018.8
2019-02-26T04:12:39.279Z,1018.8
2019-02-26T04:13:36.686Z,1018.8
2019-02-26T04:14:37.408Z,1018.8
2019-02-26T04:15:38.348Z,1018.8
2019-02-26T04:16:41.132Z,1018.8
2019-02-26T04:17:41.778Z,1018.8
2019-02-26T04:18:40.228Z,1018.8
2019-02-26T04:19:43.749Z,1018.8
2019-02-26T04:20:44.248Z,1018.7
2019-02-26T04:21:42.393Z,1018.8
2019-02-26T04:22:47.043Z,1018.7
2019-02-26T04:23:45.939Z,1018.7
2019-02-26T04:24:44.525Z,1018.7
2019-02-26T04:25:45.224Z,1018.6
2019-02-26T04:26:45.934Z,1018.6
2019-02-26T04:27:46.644Z,1018.6
2019-02-26T04:28:47.645Z,1018.6
2019-02-26T04:29:49.359Z,1018.6
2019-02-26T04:30:50.263Z,1018.6
2019-02-26T04:31:52.081Z,1018.6
2019-02-26T04:32:50.499Z,1018.6
2019-02-26T04:33:53.055Z,1018.6
2019-02-26T04:34:53.961Z,1018.6
2019-02-26T04:35:55.002Z,1018.5
2019-02-26T04:36:53.337Z,1018.6
2019-02-26T04:37:55.776Z,1018.6
2019-02-26T04:38:55.674Z,1018.5
2019-02-26T04:39:55.475Z,1018.5
2019-02-26T04:41:00.227Z,1018.5
2019-02-26T04:41:56.911Z,1018.5
2019-02-26T04:42:59.346Z,1018.6
2019-02-26T04:44:00.658Z,1018.6
2019-02-26T04:45:02.244Z,1018.6
2019-02-26T04:46:02.227Z,1018.6
2019-02-26T04:47:03.530Z,1018.6
2019-02-26T04:48:01.211Z,1018.6
2019-02-26T04:49:01.929Z,1018.6
2019-02-26T04:50:03.739Z,1018.5
2019-02-26T04:51:03.359Z,1018.5
2019-02-26T04:52:05.576Z,1018.5
2019-02-26T04:53:06.141Z,1018.4
2019-02-26T04:54:05.493Z,1018.4
2019-02-26T04:55:06.285Z,1018.4
2019-02-26T04:56:11.967Z,1018.4
2019-02-26T04:57:07.629Z,1018.4
2019-02-26T04:58:08.690Z,1018.4
2019-02-26T04:59:09.784Z,1018.4
2019-02-26T05:00:10.507Z,1018.4
2019-02-26T05:01:12.809Z,1018.4
2019-02-26T05:02:11.177Z,1018.4
2019-02-26T05:03:14.883Z,1018.4
2019-02-26T05:04:12.759Z,1018.4
2019-02-26T05:05:13.468Z,1018.4
2019-02-26T05:06:14.167Z,1018.4
2019-02-26T05:07:17.337Z,1018.4
2019-02-26T05:08:17.646Z,1018.4
2019-02-26T05:09:16.359Z,1018.4
2019-02-26T05:10:17.119Z,1018.4
2019-02-26T05:11:31.209Z,1018.4
2019-02-26T05:12:18.500Z,1018.4
2019-02-26T05:13:21.810Z,1018.4
2019-02-26T05:14:23.417Z,1018.5
2019-02-26T05:15:23.072Z,1018.4
2019-02-26T05:16:21.670Z,1018.4
2019-02-26T05:17:24.675Z,1018.4
2019-02-26T05:18:23.860Z,1018.3
2019-02-26T05:19:24.372Z,1018.3
2019-02-26T05:20:24.522Z,1018.3
2019-02-26T05:21:27.079Z,1018.3
2019-02-26T05:22:28.334Z,1018.3
2019-02-26T05:23:30.416Z,1018.2
2019-02-26T05:24:27.405Z,1018.2
2019-02-26T05:25:28.137Z,1018.2
2019-02-26T05:26:30.201Z,1018.2
2019-02-26T05:27:29.546Z,1018.2
2019-02-26T05:28:35.648Z,1018.2
2019-02-26T05:29:30.968Z,1018.2
2019-02-26T05:30:31.777Z,1018.2
2019-02-26T05:31:34.647Z,1018.2
2019-02-26T05:32:35.358Z,1018.2
2019-02-26T05:33:33.925Z,1018.2
2019-02-26T05:34:34.634Z,1018.2
2019-02-26T05:35:37.787Z,1018.2
2019-02-26T05:36:37.245Z,1018.2
2019-02-26T05:37:38.223Z,1018.2
2019-02-26T05:38:37.794Z,1018.2
2019-02-26T05:39:40.510Z,1018.2
2019-02-26T05:40:40.388Z,1018.2
2019-02-26T05:41:40.472Z,1018.2
2019-02-26T05:42:40.556Z,1018.2
2019-02-26T05:43:41.416Z,1018.2
2019-02-26T05:44:42.230Z,1018.2
2019-02-26T05:45:42.989Z,1018.2
2019-02-26T05:46:43.711Z,1018.2
2019-02-26T05:47:46.062Z,1018.2
2019-02-26T05:48:45.833Z,1018.3
2019-02-26T05:49:45.987Z,1018.2
2019-02-26T05:50:46.597Z,1018.3
2019-02-26T05:51:47.300Z,1018.3
2019-02-26T05:52:50.444Z,1018.3
2019-02-26T05:53:49.228Z,1018.3
2019-02-26T05:54:49.977Z,1018.3
2019-02-26T05:55:53.240Z,1018.4
2019-02-26T05:56:51.451Z,1018.3
2019-02-26T05:57:52.154Z,1018.4
2019-02-26T05:58:52.876Z,1018.4
2019-02-26T05:59:53.653Z,1018.4
2019-02-26T06:00:54.477Z,1018.4
2019-02-26T06:01:55.966Z,1018.4
2019-02-26T06:02:55.918Z,1018.4
2019-02-26T06:03:56.624Z,1018.4
2019-02-26T06:04:57.332Z,1018.4
2019-02-26T06:06:00.339Z,1018.4
2019-02-26T06:06:59.896Z,1018.4
2019-02-26T06:07:59.932Z,1018.4
2019-02-26T06:09:02.889Z,1018.4
2019-02-26T06:10:02.035Z,1018.5
2019-02-26T06:11:02.741Z,1018.5
2019-02-26T06:12:03.483Z,1018.6
2019-02-26T06:13:04.998Z,1018.6
2019-02-26T06:14:07.173Z,1018.6
2019-02-26T06:15:07.950Z,1018.6
2019-02-26T06:16:07.596Z,1018.7
2019-02-26T06:17:07.764Z,1018.7
2019-02-26T06:18:07.860Z,1018.6
2019-02-26T06:19:10.834Z,1018.6
2019-02-26T06:20:11.006Z,1018.7
2019-02-26T06:21:10.009Z,1018.7
2019-02-26T06:22:14.427Z,1018.6
2019-02-26T06:23:11.432Z,1018.6
2019-02-26T06:24:12.142Z,1018.6
2019-02-26T06:25:18.587Z,1018.6
2019-02-26T06:26:15.568Z,1018.6
2019-02-26T06:27:16.571Z,1018.7
2019-02-26T06:28:17.493Z,1018.7
2019-02-26T06:29:19.999Z,1018.7
2019-02-26T06:30:16.535Z,1018.7
2019-02-26T06:31:19.384Z,1018.7
2019-02-26T06:32:17.970Z,1018.7
2019-02-26T06:33:18.696Z,1018.7
2019-02-26T06:34:21.434Z,1018.7
2019-02-26T06:35:20.129Z,1018.7
2019-02-26T06:36:21.503Z,1018.8
2019-02-26T06:37:23.374Z,1018.8
2019-02-26T06:38:23.487Z,1018.8
2019-02-26T06:39:24.587Z,1018.7
2019-02-26T06:40:23.718Z,1018.7
2019-02-26T06:41:24.426Z,1018.7
2019-02-26T06:42:25.136Z,1018.7
2019-02-26T06:43:25.848Z,1018.7
2019-02-26T06:44:26.570Z,1018.7
2019-02-26T06:45:27.279Z,1018.7
2019-02-26T06:46:29.368Z,1018.7
2019-02-26T06:47:30.991Z,1018.7
2019-02-26T06:48:30.584Z,1018.7
2019-02-26T06:49:30.212Z,1018.7
2019-02-26T06:50:31.821Z,1018.7
2019-02-26T06:51:31.637Z,1018.7
2019-02-26T06:52:35.100Z,1018.7
2019-02-26T06:53:33.067Z,1018.7
2019-02-26T06:54:33.779Z,1018.7
2019-02-26T06:55:34.495Z,1018.7
2019-02-26T06:56:40.740Z,1018.7
2019-02-26T06:57:35.929Z,1018.7
2019-02-26T06:58:38.146Z,1018.7
2019-02-26T06:59:37.386Z,1018.8
2019-02-26T07:00:38.098Z,1018.7
2019-02-26T07:01:39.704Z,1018.7
2019-02-26T07:02:39.579Z,1018.8
2019-02-26T07:03:40.918Z,1018.8
2019-02-26T07:04:41.013Z,1018.8
2019-02-26T07:05:42.386Z,1018.7
2019-02-26T07:06:42.445Z,1018.7
2019-02-26T07:07:43.162Z,1018.8
2019-02-26T07:08:45.031Z,1018.8
2019-02-26T07:09:44.851Z,1018.8
2019-02-26T07:10:45.563Z,1018.8
2019-02-26T07:11:46.273Z,1018.8
2019-02-26T07:12:48.754Z,1018.8
2019-02-26T07:13:47.803Z,1018.8
2019-02-26T07:14:50.770Z,1018.8
2019-02-26T07:15:49.227Z,1018.8
2019-02-26T07:16:49.952Z,1018.8
2019-02-26T07:17:50.670Z,1018.8
2019-02-26T07:18:51.471Z,1018.8
2019-02-26T07:19:53.850Z,1018.8
2019-02-26T07:20:55.245Z,1018.8
2019-02-26T07:21:53.602Z,1018.8
2019-02-26T07:22:54.318Z,1018.8
2019-02-26T07:23:56.438Z,1018.8
2019-02-26T07:24:55.885Z,1018.8
2019-02-26T07:25:56.603Z,1018.8
2019-02-26T07:26:57.313Z,1018.8
2019-02-26T07:28:00.211Z,1018.8
2019-02-26T07:28:58.743Z,1018.8
2019-02-26T07:29:59.461Z,1018.8
2019-02-26T07:31:02.182Z,1018.8
2019-02-26T07:32:00.896Z,1018.7
2019-02-26T07:33:03.029Z,1018.7
2019-02-26T07:34:03.184Z,1018.8
2019-02-26T07:35:05.866Z,1018.7
2019-02-26T07:36:04.213Z,1018.7
2019-02-26T07:37:06.405Z,1018.8
2019-02-26T07:38:05.284Z,1018.8
2019-02-26T07:39:05.995Z,1018.8
2019-02-26T07:40:08.752Z,1018.8
2019-02-26T07:41:07.422Z,1018.8
2019-02-26T07:42:09.181Z,1018.8
2019-02-26T07:43:09.819Z,1018.8
2019-02-26T07:44:15.406Z,1018.8
2019-02-26T07:45:15.150Z,1018.8
2019-02-26T07:46:12.651Z,1018.8
2019-02-26T07:47:11.745Z,1018.8
2019-02-26T07:48:16.287Z,1018.9
2019-02-26T07:49:13.165Z,1018.9
2019-02-26T07:50:14.588Z,1018.9
2019-02-26T07:51:14.611Z,1018.9
2019-02-26T07:52:15.324Z,1019.0
2019-02-26T07:53:17.984Z,1019.0
2019-02-26T07:54:16.754Z,1019.0
2019-02-26T07:55:17.640Z,1019.0
2019-02-26T07:56:18.200Z,1019.0
2019-02-26T07:57:20.642Z,1019.1
2019-02-26T07:58:19.630Z,1019.1
2019-02-26T07:59:27.424Z,1019.0
2019-02-26T08:00:21.063Z,1019.0
2019-02-26T08:01:21.795Z,1019.0
2019-02-26T08:02:22.514Z,1019.0
2019-02-26T08:03:24.762Z,1019.0
2019-02-26T08:04:23.942Z,1019.0
2019-02-26T08:05:28.314Z,1019.0
2019-02-26T08:06:26.807Z,1019.0
2019-02-26T08:07:26.775Z,1018.9
2019-02-26T08:08:26.807Z,1019.0
2019-02-26T08:09:27.526Z,1018.9
2019-02-26T08:10:28.247Z,1018.9
2019-02-26T08:11:29.121Z,1019.0
2019-02-26T08:12:30.943Z,1019.0
2019-02-26T08:13:32.088Z,1018.9
2019-02-26T08:14:31.281Z,1018.9
2019-02-26T08:15:32.881Z,1018.9
2019-02-26T08:16:32.998Z,1018.9
2019-02-26T08:17:33.764Z,1018.8
2019-02-26T08:18:34.487Z,1018.9
2019-02-26T08:19:37.595Z,1018.9
2019-02-26T08:20:37.573Z,1018.8
2019-02-26T08:21:36.651Z,1018.9
2019-02-26T08:22:37.640Z,1018.8
2019-02-26T08:23:38.440Z,1018.8
2019-02-26T08:24:39.162Z,1018.8
2019-02-26T08:25:39.879Z,1018.9
2019-02-26T08:26:42.871Z,1018.9
2019-02-26T08:27:41.314Z,1018.9
2019-02-26T08:28:43.678Z,1018.9
2019-02-26T08:29:42.757Z,1018.9
2019-02-26T08:30:45.241Z,1018.9
2019-02-26T08:31:46.674Z,1018.9
2019-02-26T08:32:48.384Z,1018.9
2019-02-26T08:33:48.632Z,1018.9
2019-02-26T08:34:46.395Z,1018.9
2019-02-26T08:35:47.110Z,1018.9
2019-02-26T08:36:47.824Z,1018.9
2019-02-26T08:37:48.539Z,1018.9
2019-02-26T08:38:49.357Z,1019.0
2019-02-26T08:39:50.073Z,1018.9
2019-02-26T08:40:50.802Z,1018.9
2019-02-26T08:41:51.527Z,1018.9
2019-02-26T08:42:52.244Z,1018.9
2019-02-26T08:43:54.552Z,1018.9
2019-02-26T08:44:55.636Z,1018.9
2019-02-26T08:45:54.422Z,1018.9
2019-02-26T08:46:55.141Z,1018.9
2019-02-26T08:47:55.853Z,1018.9
2019-02-26T08:48:56.671Z,1018.9
2019-02-26T08:49:58.887Z,1018.9
2019-02-26T08:51:00.779Z,1018.9
2019-02-26T08:51:58.851Z,1018.9
2019-02-26T08:52:59.575Z,1018.9
2019-02-26T08:54:00.295Z,1018.9
2019-02-26T08:55:01.076Z,1018.8
2019-02-26T08:56:03.959Z,1018.8
2019-02-26T08:57:02.463Z,1018.8
2019-02-26T08:58:03.190Z,1018.8
2019-02-26T08:59:03.911Z,1018.9
2019-02-26T09:00:04.618Z,1018.9
2019-02-26T09:01:05.359Z,1018.9
2019-02-26T09:02:06.085Z,1018.9
2019-02-26T09:03:08.836Z,1018.9
2019-02-26T09:04:07.531Z,1018.9
2019-02-26T09:05:09.843Z,1018.9
2019-02-26T09:06:13.216Z,1018.9
2019-02-26T09:07:09.695Z,1018.9
2019-02-26T09:08:12.831Z,1018.9
2019-02-26T09:09:11.152Z,1019.0
2019-02-26T09:10:13.052Z,1019.0
2019-02-26T09:11:13.558Z,1019.0
2019-02-26T09:12:15.138Z,1018.9
2019-02-26T09:13:16.299Z,1018.9
2019-02-26T09:14:16.591Z,1018.9
2019-02-26T09:15:15.843Z,1018.9
2019-02-26T09:16:16.220Z,1018.9
2019-02-26T09:17:20.882Z,1018.9
2019-02-26T09:18:20.293Z,1018.9
2019-02-26T09:19:18.384Z,1018.9
2019-02-26T09:20:19.110Z,1018.9
2019-02-26T09:21:21.110Z,1018.9
2019-02-26T09:22:21.242Z,1018.9
2019-02-26T09:23:23.530Z,1018.9
2019-02-26T09:24:22.001Z,1018.9
2019-02-26T09:25:25.510Z,1018.9
2019-02-26T09:26:23.511Z,1019.0
2019-02-26T09:27:24.827Z,1019.0
2019-02-26T09:28:26.998Z,1019.0
2019-02-26T09:29:25.716Z,1019.0
2019-02-26T09:30:28.162Z,1019.1
2019-02-26T09:31:27.285Z,1019.1
2019-02-26T09:32:28.352Z,1019.1
2019-02-26T09:33:32.824Z,1019.1
2019-02-26T09:34:31.806Z,1019.1
2019-02-26T09:35:31.316Z,1019.1
2019-02-26T09:36:30.934Z,1019.1
2019-02-26T09:37:31.665Z,1019.1
2019-02-26T09:38:32.400Z,1019.1
2019-02-26T09:39:36.005Z,1019.1
2019-02-26T09:40:34.478Z,1019.0
2019-02-26T09:41:35.554Z,1019.0
2019-02-26T09:42:35.354Z,1019.0
2019-02-26T09:43:36.204Z,1019.0
2019-02-26T09:44:36.806Z,1019.0
2019-02-26T09:45:37.819Z,1019.0
2019-02-26T09:46:40.820Z,1019.0
2019-02-26T09:47:39.432Z,1019.0
2019-02-26T09:48:42.572Z,1019.0
2019-02-26T09:49:40.897Z,1019.0
2019-02-26T09:50:43.773Z,1019.0
2019-02-26T09:51:42.847Z,1019.0
2019-02-26T09:52:45.134Z,1019.1
2019-02-26T09:53:44.302Z,1019.1
2019-02-26T09:54:47.708Z,1019.1
2019-02-26T09:55:45.747Z,1019.0
2019-02-26T09:56:46.492Z,1019.1
2019-02-26T09:57:47.222Z,1019.1
2019-02-26T09:58:48.305Z,1019.1
2019-02-26T09:59:49.628Z,1019.1
2019-02-26T10:00:51.162Z,1019.1
2019-02-26T10:01:50.141Z,1019.1
2019-02-26T10:02:52.071Z,1019.1
2019-02-26T10:03:53.613Z,1019.1
2019-02-26T10:04:54.326Z,1019.1
2019-02-26T10:05:55.099Z,1019.1
2019-02-26T10:06:53.783Z,1019.1
2019-02-26T10:07:57.147Z,1019.2
2019-02-26T10:08:56.039Z,1019.1
2019-02-26T10:09:55.952Z,1019.2
2019-02-26T10:10:57.640Z,1019.1
2019-02-26T10:11:57.455Z,1019.1
2019-02-26T10:12:59.938Z,1019.1
2019-02-26T10:13:58.926Z,1019.1
2019-02-26T10:15:02.363Z,1019.1
2019-02-26T10:16:01.974Z,1019.1
2019-02-26T10:17:01.201Z,1019.1
2019-02-26T10:18:04.019Z,1019.1
2019-02-26T10:19:02.663Z,1019.1
2019-02-26T10:20:04.998Z,1019.1
2019-02-26T10:21:05.963Z,1019.0
2019-02-26T10:22:07.145Z,1019.1
2019-02-26T10:23:06.291Z,1019.0
2019-02-26T10:24:06.409Z,1019.1
2019-02-26T10:25:07.137Z,1019.1
2019-02-26T10:26:10.444Z,1019.1
2019-02-26T10:27:09.362Z,1019.1
2019-02-26T10:28:11.712Z,1019.1
2019-02-26T10:29:10.057Z,1019.0
2019-02-26T10:30:13.497Z,1019.0
2019-02-26T10:31:11.609Z,1019.0
2019-02-26T10:32:12.345Z,1019.0
2019-02-26T10:33:17.638Z,1019.0
2019-02-26T10:34:15.756Z,1019.0
2019-02-26T10:35:16.570Z,1019.0
2019-02-26T10:36:16.476Z,1019.0
2019-02-26T10:37:15.997Z,1019.0
2019-02-26T10:38:16.729Z,1019.0
2019-02-26T10:39:18.616Z,1019.0
2019-02-26T10:40:19.539Z,1019.0
2019-02-26T10:41:21.079Z,1019.0
2019-02-26T10:42:19.654Z,1019.0
2019-02-26T10:43:20.400Z,1019.0
2019-02-26T10:44:21.179Z,1019.0
2019-02-26T10:45:21.927Z,1019.0
2019-02-26T10:46:22.647Z,1018.9
2019-02-26T10:47:25.140Z,1018.9
2019-02-26T10:48:24.988Z,1018.9
2019-02-26T10:49:24.865Z,1018.9
2019-02-26T10:50:31.091Z,1018.9
2019-02-26T10:51:27.201Z,1018.9
2019-02-26T10:52:28.654Z,1018.9
2019-02-26T10:53:28.241Z,1018.9
2019-02-26T10:54:31.504Z,1018.9
2019-02-26T10:55:35.210Z,1019.0
2019-02-26T10:56:38.502Z,1018.9
2019-02-26T10:57:34.267Z,1018.9
2019-02-26T10:58:33.122Z,1018.9
2019-02-26T10:59:33.857Z,1018.9
2019-02-26T11:00:37.630Z,1018.9
2019-02-26T11:01:35.552Z,1018.9
2019-02-26T11:02:36.098Z,1018.9
2019-02-26T11:03:40.862Z,1018.9
2019-02-26T11:04:41.132Z,1018.9
2019-02-26T11:05:39.678Z,1019.0
2019-02-26T11:06:41.893Z,1018.9
2019-02-26T11:07:40.181Z,1018.9
2019-02-26T11:08:40.793Z,1018.9
2019-02-26T11:09:41.525Z,1018.9
2019-02-26T11:10:44.492Z,1019.0
2019-02-26T11:11:42.985Z,1018.9
2019-02-26T11:12:45.435Z,1018.9
2019-02-26T11:13:48.213Z,1018.9
2019-02-26T11:14:45.191Z,1019.0
2019-02-26T11:15:48.239Z,1019.0
2019-02-26T11:16:46.660Z,1019.0
2019-02-26T11:17:47.939Z,1019.0
2019-02-26T11:18:48.298Z,1019.0
2019-02-26T11:19:49.029Z,1019.0
2019-02-26T11:20:50.312Z,1019.0
2019-02-26T11:21:55.400Z,1019.0
2019-02-26T11:22:52.053Z,1019.0
2019-02-26T11:23:52.383Z,1019.0
2019-02-26T11:24:56.000Z,1019.0
2019-02-26T11:25:54.101Z,1019.0
2019-02-26T11:26:54.839Z,1019.0
2019-02-26T11:27:55.654Z,1019.0
2019-02-26T11:28:56.385Z,1019.0
2019-02-26T11:29:59.237Z,1018.9
2019-02-26T11:30:57.844Z,1018.9
2019-02-26T11:31:58.574Z,1018.9
2019-02-26T11:33:02.522Z,1018.9
2019-02-26T11:34:03.326Z,1019.0
2019-02-26T11:35:02.354Z,1018.9
2019-02-26T11:36:03.036Z,1019.0
2019-02-26T11:37:03.302Z,1018.9
2019-02-26T11:38:03.113Z,1018.9
2019-02-26T11:39:05.030Z,1018.9
2019-02-26T11:40:05.533Z,1018.9
2019-02-26T11:41:05.352Z,1018.9
2019-02-26T11:42:06.084Z,1018.9
2019-02-26T11:43:11.618Z,1018.9
2019-02-26T11:44:12.304Z,1018.8
2019-02-26T11:45:09.782Z,1018.9
2019-02-26T11:46:09.008Z,1018.8
2019-02-26T11:47:11.147Z,1018.9
2019-02-26T11:48:10.480Z,1018.8
2019-02-26T11:49:11.975Z,1018.8
2019-02-26T11:50:12.184Z,1018.8
2019-02-26T11:51:16.858Z,1018.8
2019-02-26T11:52:13.645Z,1018.8
2019-02-26T11:53:14.396Z,1018.8
2019-02-26T11:54:17.504Z,1018.8
2019-02-26T11:55:15.848Z,1018.8
2019-02-26T11:56:17.718Z,1018.7
2019-02-26T11:57:17.786Z,1018.7
2019-02-26T11:58:19.891Z,1018.7
2019-02-26T11:59:19.512Z,1018.7
2019-02-26T12:00:25.356Z,1018.7
2019-02-26T12:01:20.294Z,1018.7
2019-02-26T12:02:26.636Z,1018.7
2019-02-26T12:03:24.904Z,1018.7
2019-02-26T12:04:22.489Z,1018.7
2019-02-26T12:05:29.592Z,1018.7
2019-02-26T12:06:24.007Z,1018.7
2019-02-26T12:07:25.638Z,1018.7
2019-02-26T12:08:25.943Z,1018.6
2019-02-26T12:09:26.219Z,1018.6
2019-02-26T12:10:29.533Z,1018.7
2019-02-26T12:11:27.692Z,1018.6
2019-02-26T12:12:30.685Z,1018.7
2019-02-26T12:13:29.160Z,1018.6
2019-02-26T12:14:29.896Z,1018.6
2019-02-26T12:15:32.815Z,1018.7
2019-02-26T12:16:31.358Z,1018.6
2019-02-26T12:17:32.130Z,1018.7
2019-02-26T12:18:34.258Z,1018.6
2019-02-26T12:19:34.487Z,1018.7
2019-02-26T12:20:35.581Z,1018.6
2019-02-26T12:21:36.927Z,1018.6
2019-02-26T12:22:35.791Z,1018.6
2019-02-26T12:23:37.433Z,1018.6
2019-02-26T12:24:37.258Z,1018.6
2019-02-26T12:25:37.996Z,1018.5
2019-02-26T12:26:38.734Z,1018.5
2019-02-26T12:27:41.325Z,1018.5
2019-02-26T12:28:40.369Z,1018.5
2019-02-26T12:29:43.632Z,1018.5
2019-02-26T12:30:43.999Z,1018.5
2019-02-26T12:31:42.429Z,1018.5
2019-02-26T12:32:46.805Z,1018.4
2019-02-26T12:33:43.940Z,1018.5
2019-02-26T12:34:47.648Z,1018.5
2019-02-26T12:35:45.400Z,1018.5
2019-02-26T12:36:48.157Z,1018.5
2019-02-26T12:37:50.077Z,1018.5